sensor_id;sensor_type;location;lat;lon;timestamp;temperature;humidity
1277;DHT22;631;51.024;13.826;2023-08-24T00:01:28;18.40;99.90
1277;DHT22;631;51.024;13.826;2023-08-24T00:03:54;18.30;99.90
1277;DHT22;631;51.024;13.826;2023-08-24T00:06:19;18.20;99.90
1277;DHT22;631;51.024;13.826;2023-08-24T00:08:45;18.20;99.90
1277;DHT22;631;51.024;13.826;2023-08-24T00:11:10;18.10;99.90
1277;DHT22;631;51.024;13.826;2023-08-24T00:13:43;18.10;99.90
1277;DHT22;631;51.024;13.826;2023-08-24T00:16:18;18.10;99.90
1277;DHT22;631;51.024;13.826;2023-08-24T00:18:44;18.10;99.90
1277;DHT22;631;51.024;13.826;2023-08-24T00:21:11;18.00;99.90
1277;DHT22;631;51.024;13.826;2023-08-24T00:23:37;18.00;99.90
1277;DHT22;631;51.024;13.826;2023-08-24T00:26:02;18.00;99.90
1277;DHT22;631;51.024;13.826;2023-08-24T00:28:28;17.90;99.90
1277;DHT22;631;51.024;13.826;2023-08-24T00:30:54;17.90;99.90
1277;DHT22;631;51.024;13.826;2023-08-24T00:33:19;17.90;99.90
1277;DHT22;631;51.024;13.826;2023-08-24T00:35:45;17.80;99.90
1277;DHT22;631;51.024;13.826;2023-08-24T00:38:10;17.80;99.90
1277;DHT22;631;51.024;13.826;2023-08-24T00:40:36;17.80;99.90
1277;DHT22;631;51.024;13.826;2023-08-24T00:43:02;17.70;99.90
1277;DHT22;631;51.024;13.826;2023-08-24T00:45:27;17.70;99.90
1277;DHT22;631;51.024;13.826;2023-08-24T00:47:55;17.70;99.90
1277;DHT22;631;51.024;13.826;2023-08-24T00:50:20;17.60;99.90
1277;DHT22;631;51.024;13.826;2023-08-24T00:52:47;17.60;99.90
1277;DHT22;631;51.024;13.826;2023-08-24T00:55:14;17.60;99.90
1277;DHT22;631;51.024;13.826;2023-08-24T00:57:41;17.50;99.90
1277;DHT22;631;51.024;13.826;2023-08-24T01:00:08;17.50;99.90
1277;DHT22;631;51.024;13.826;2023-08-24T01:02:39;17.50;99.90
1277;DHT22;631;51.024;13.826;2023-08-24T01:05:06;17.40;99.90
1277;DHT22;631;51.024;13.826;2023-08-24T01:07:33;17.40;99.90
1277;DHT22;631;51.024;13.826;2023-08-24T01:10:00;17.30;99.90
1277;DHT22;631;51.024;13.826;2023-08-24T01:17:43;17.20;99.90
1277;DHT22;631;51.024;13.826;2023-08-24T01:20:10;17.20;99.90
1277;DHT22;631;51.024;13.826;2023-08-24T01:23:14;17.20;99.90
1277;DHT22;631;51.024;13.826;2023-08-24T01:26:01;17.20;99.90
1277;DHT22;631;51.024;13.826;2023-08-24T01:28:30;17.10;99.90
1277;DHT22;631;51.024;13.826;2023-08-24T01:30:56;17.10;99.90
1277;DHT22;631;51.024;13.826;2023-08-24T01:33:21;17.10;99.90
1277;DHT22;631;51.024;13.826;2023-08-24T01:35:47;17.10;99.90
1277;DHT22;631;51.024;13.826;2023-08-24T01:38:12;17.10;99.90
1277;DHT22;631;51.024;13.826;2023-08-24T01:43:32;17.00;99.90
1277;DHT22;631;51.024;13.826;2023-08-24T01:46:00;16.90;99.90
1277;DHT22;631;51.024;13.826;2023-08-24T01:48:29;16.90;99.90
1277;DHT22;631;51.024;13.826;2023-08-24T01:50:59;16.90;99.90
1277;DHT22;631;51.024;13.826;2023-08-24T01:53:27;16.90;99.90
1277;DHT22;631;51.024;13.826;2023-08-24T01:55:53;16.80;99.90
1277;DHT22;631;51.024;13.826;2023-08-24T01:58:20;16.80;99.90
1277;DHT22;631;51.024;13.826;2023-08-24T02:00:45;16.80;99.90
1277;DHT22;631;51.024;13.826;2023-08-24T02:03:11;16.80;99.90
1277;DHT22;631;51.024;13.826;2023-08-24T02:05:37;16.70;99.90
1277;DHT22;631;51.024;13.826;2023-08-24T02:08:04;16.70;99.90
1277;DHT22;631;51.024;13.826;2023-08-24T02:10:29;16.70;99.90
1277;DHT22;631;51.024;13.826;2023-08-24T02:12:55;16.70;99.90
1277;DHT22;631;51.024;13.826;2023-08-24T02:15:21;16.60;99.90
1277;DHT22;631;51.024;13.826;2023-08-24T02:17:46;16.60;99.90
1277;DHT22;631;51.024;13.826;2023-08-24T02:20:12;16.60;99.90
1277;DHT22;631;51.024;13.826;2023-08-24T02:22:38;16.60;99.90
1277;DHT22;631;51.024;13.826;2023-08-24T02:25:05;16.60;99.90
1277;DHT22;631;51.024;13.826;2023-08-24T02:27:31;16.60;99.90
1277;DHT22;631;51.024;13.826;2023-08-24T02:29:59;16.50;99.90
1277;DHT22;631;51.024;13.826;2023-08-24T02:32:24;16.50;99.90
1277;DHT22;631;51.024;13.826;2023-08-24T02:34:51;16.50;99.90
1277;DHT22;631;51.024;13.826;2023-08-24T02:37:17;16.50;99.90
1277;DHT22;631;51.024;13.826;2023-08-24T02:39:42;16.50;99.90
1277;DHT22;631;51.024;13.826;2023-08-24T02:42:08;16.40;99.90
1277;DHT22;631;51.024;13.826;2023-08-24T02:44:34;16.40;99.90
1277;DHT22;631;51.024;13.826;2023-08-24T02:47:01;16.30;99.90
1277;DHT22;631;51.024;13.826;2023-08-24T02:49:28;16.40;99.90
1277;DHT22;631;51.024;13.826;2023-08-24T02:51:53;16.30;99.90
1277;DHT22;631;51.024;13.826;2023-08-24T02:54:19;16.30;99.90
1277;DHT22;631;51.024;13.826;2023-08-24T02:56:45;16.20;99.90
1277;DHT22;631;51.024;13.826;2023-08-24T02:59:12;16.20;99.90
1277;DHT22;631;51.024;13.826;2023-08-24T03:01:38;16.20;99.90
1277;DHT22;631;51.024;13.826;2023-08-24T03:04:06;16.20;99.90
1277;DHT22;631;51.024;13.826;2023-08-24T03:06:32;16.20;99.90
1277;DHT22;631;51.024;13.826;2023-08-24T03:08:59;16.20;99.90
1277;DHT22;631;51.024;13.826;2023-08-24T03:11:25;16.20;99.90
1277;DHT22;631;51.024;13.826;2023-08-24T03:13:50;16.20;99.90
1277;DHT22;631;51.024;13.826;2023-08-24T03:16:16;16.20;99.90
1277;DHT22;631;51.024;13.826;2023-08-24T03:18:41;16.20;99.90
1277;DHT22;631;51.024;13.826;2023-08-24T03:21:07;16.10;99.90
1277;DHT22;631;51.024;13.826;2023-08-24T03:23:33;16.10;99.90
1277;DHT22;631;51.024;13.826;2023-08-24T03:25:58;16.00;99.90
1277;DHT22;631;51.024;13.826;2023-08-24T03:28:24;16.00;99.90
1277;DHT22;631;51.024;13.826;2023-08-24T03:30:53;16.00;99.90
1277;DHT22;631;51.024;13.826;2023-08-24T03:33:21;15.90;99.90
1277;DHT22;631;51.024;13.826;2023-08-24T03:35:46;15.90;99.90
1277;DHT22;631;51.024;13.826;2023-08-24T03:38:12;15.90;99.90
1277;DHT22;631;51.024;13.826;2023-08-24T03:40:38;15.90;99.90
1277;DHT22;631;51.024;13.826;2023-08-24T03:43:04;15.90;99.90
1277;DHT22;631;51.024;13.826;2023-08-24T03:45:29;15.80;99.90
1277;DHT22;631;51.024;13.826;2023-08-24T03:47:55;15.80;99.90
1277;DHT22;631;51.024;13.826;2023-08-24T03:50:21;15.70;99.90
1277;DHT22;631;51.024;13.826;2023-08-24T03:52:49;15.70;99.90
1277;DHT22;631;51.024;13.826;2023-08-24T03:55:15;15.70;99.90
1277;DHT22;631;51.024;13.826;2023-08-24T03:57:41;15.70;99.90
1277;DHT22;631;51.024;13.826;2023-08-24T04:00:07;15.60;99.90
1277;DHT22;631;51.024;13.826;2023-08-24T04:02:41;15.70;99.90
1277;DHT22;631;51.024;13.826;2023-08-24T04:05:06;15.70;99.90
1277;DHT22;631;51.024;13.826;2023-08-24T04:07:32;15.70;99.90
1277;DHT22;631;51.024;13.826;2023-08-24T04:10:02;15.70;99.90
1277;DHT22;631;51.024;13.826;2023-08-24T04:12:28;15.70;99.90
1277;DHT22;631;51.024;13.826;2023-08-24T04:14:54;15.70;99.90
1277;DHT22;631;51.024;13.826;2023-08-24T04:17:21;15.70;99.90
1277;DHT22;631;51.024;13.826;2023-08-24T04:19:47;15.70;99.90
1277;DHT22;631;51.024;13.826;2023-08-24T04:22:12;15.70;99.90
1277;DHT22;631;51.024;13.826;2023-08-24T04:24:38;15.70;99.90
1277;DHT22;631;51.024;13.826;2023-08-24T04:27:04;15.70;99.90
1277;DHT22;631;51.024;13.826;2023-08-24T04:29:29;15.80;99.90
1277;DHT22;631;51.024;13.826;2023-08-24T04:31:56;15.80;99.90
1277;DHT22;631;51.024;13.826;2023-08-24T04:34:22;15.80;99.90
1277;DHT22;631;51.024;13.826;2023-08-24T04:36:47;15.70;99.90
1277;DHT22;631;51.024;13.826;2023-08-24T04:39:13;15.70;99.90
1277;DHT22;631;51.024;13.826;2023-08-24T04:41:39;15.70;99.90
1277;DHT22;631;51.024;13.826;2023-08-24T04:44:04;15.70;99.90
1277;DHT22;631;51.024;13.826;2023-08-24T04:46:30;15.70;99.90
1277;DHT22;631;51.024;13.826;2023-08-24T04:48:55;15.70;99.90
1277;DHT22;631;51.024;13.826;2023-08-24T04:51:21;15.70;99.90
1277;DHT22;631;51.024;13.826;2023-08-24T04:53:47;15.70;99.90
1277;DHT22;631;51.024;13.826;2023-08-24T04:56:12;15.80;99.90
1277;DHT22;631;51.024;13.826;2023-08-24T04:58:38;15.80;99.90
1277;DHT22;631;51.024;13.826;2023-08-24T05:01:03;15.90;99.90
1277;DHT22;631;51.024;13.826;2023-08-24T05:03:29;15.90;99.90
1277;DHT22;631;51.024;13.826;2023-08-24T05:05:54;16.00;99.90
1277;DHT22;631;51.024;13.826;2023-08-24T05:08:20;16.00;99.90
1277;DHT22;631;51.024;13.826;2023-08-24T05:10:46;16.00;99.90
1277;DHT22;631;51.024;13.826;2023-08-24T05:13:11;16.10;99.90
1277;DHT22;631;51.024;13.826;2023-08-24T05:15:37;16.10;99.90
1277;DHT22;631;51.024;13.826;2023-08-24T05:18:03;16.10;99.90
1277;DHT22;631;51.024;13.826;2023-08-24T05:20:29;16.10;99.90
1277;DHT22;631;51.024;13.826;2023-08-24T05:22:55;16.10;99.90
1277;DHT22;631;51.024;13.826;2023-08-24T05:25:21;16.20;99.90
1277;DHT22;631;51.024;13.826;2023-08-24T05:27:47;16.20;99.90
1277;DHT22;631;51.024;13.826;2023-08-24T05:30:13;16.30;99.90
1277;DHT22;631;51.024;13.826;2023-08-24T05:32:38;16.40;99.90
1277;DHT22;631;51.024;13.826;2023-08-24T05:35:05;16.50;99.90
1277;DHT22;631;51.024;13.826;2023-08-24T05:37:30;16.50;99.90
1277;DHT22;631;51.024;13.826;2023-08-24T05:39:56;16.60;99.90
1277;DHT22;631;51.024;13.826;2023-08-24T05:42:22;16.60;99.90
1277;DHT22;631;51.024;13.826;2023-08-24T05:44:47;16.70;99.90
1277;DHT22;631;51.024;13.826;2023-08-24T05:47:13;16.80;99.90
1277;DHT22;631;51.024;13.826;2023-08-24T05:49:38;16.80;99.90
1277;DHT22;631;51.024;13.826;2023-08-24T05:52:04;16.80;99.90
1277;DHT22;631;51.024;13.826;2023-08-24T05:54:30;16.90;99.90
1277;DHT22;631;51.024;13.826;2023-08-24T05:56:55;16.90;99.90
1277;DHT22;631;51.024;13.826;2023-08-24T05:59:25;17.00;99.90
1277;DHT22;631;51.024;13.826;2023-08-24T06:01:51;17.10;99.90
1277;DHT22;631;51.024;13.826;2023-08-24T06:04:16;17.10;99.90
1277;DHT22;631;51.024;13.826;2023-08-24T06:06:42;17.20;99.90
1277;DHT22;631;51.024;13.826;2023-08-24T06:09:08;17.30;99.90
1277;DHT22;631;51.024;13.826;2023-08-24T06:11:33;17.40;99.90
1277;DHT22;631;51.024;13.826;2023-08-24T06:13:59;17.50;99.90
1277;DHT22;631;51.024;13.826;2023-08-24T06:16:24;17.60;99.90
1277;DHT22;631;51.024;13.826;2023-08-24T06:18:50;17.60;99.90
1277;DHT22;631;51.024;13.826;2023-08-24T06:21:16;17.70;99.90
1277;DHT22;631;51.024;13.826;2023-08-24T06:23:42;17.70;99.90
1277;DHT22;631;51.024;13.826;2023-08-24T06:26:09;17.80;99.90
1277;DHT22;631;51.024;13.826;2023-08-24T06:28:35;17.90;99.90
1277;DHT22;631;51.024;13.826;2023-08-24T06:31:01;18.00;99.90
1277;DHT22;631;51.024;13.826;2023-08-24T06:33:34;18.10;99.90
1277;DHT22;631;51.024;13.826;2023-08-24T06:35:59;18.20;99.90
1277;DHT22;631;51.024;13.826;2023-08-24T06:38:26;18.20;99.90
1277;DHT22;631;51.024;13.826;2023-08-24T06:40:52;18.30;99.90
1277;DHT22;631;51.024;13.826;2023-08-24T06:43:17;18.40;99.90
1277;DHT22;631;51.024;13.826;2023-08-24T06:45:46;18.60;99.90
1277;DHT22;631;51.024;13.826;2023-08-24T06:48:12;18.70;99.90
1277;DHT22;631;51.024;13.826;2023-08-24T06:50:37;18.70;99.90
1277;DHT22;631;51.024;13.826;2023-08-24T06:53:04;18.80;99.90
1277;DHT22;631;51.024;13.826;2023-08-24T06:55:29;18.90;99.90
1277;DHT22;631;51.024;13.826;2023-08-24T06:57:56;19.00;99.90
1277;DHT22;631;51.024;13.826;2023-08-24T07:00:22;19.00;99.90
1277;DHT22;631;51.024;13.826;2023-08-24T07:02:51;19.00;99.90
1277;DHT22;631;51.024;13.826;2023-08-24T07:05:17;19.10;99.90
1277;DHT22;631;51.024;13.826;2023-08-24T07:07:46;19.20;99.90
1277;DHT22;631;51.024;13.826;2023-08-24T07:10:12;19.30;99.90
1277;DHT22;631;51.024;13.826;2023-08-24T07:12:38;19.40;99.90
1277;DHT22;631;51.024;13.826;2023-08-24T07:15:07;19.50;99.90
1277;DHT22;631;51.024;13.826;2023-08-24T07:17:32;19.70;99.90
1277;DHT22;631;51.024;13.826;2023-08-24T07:19:58;19.80;99.90
1277;DHT22;631;51.024;13.826;2023-08-24T07:22:24;19.90;99.90
1277;DHT22;631;51.024;13.826;2023-08-24T07:24:52;20.00;99.90
1277;DHT22;631;51.024;13.826;2023-08-24T07:27:18;20.20;99.90
1277;DHT22;631;51.024;13.826;2023-08-24T07:29:43;20.30;99.90
1277;DHT22;631;51.024;13.826;2023-08-24T07:32:09;20.50;99.90
1277;DHT22;631;51.024;13.826;2023-08-24T07:34:35;20.70;99.90
1277;DHT22;631;51.024;13.826;2023-08-24T07:37:01;20.80;99.90
1277;DHT22;631;51.024;13.826;2023-08-24T07:39:27;20.90;99.90
1277;DHT22;631;51.024;13.826;2023-08-24T07:41:52;21.00;99.90
1277;DHT22;631;51.024;13.826;2023-08-24T07:44:18;21.20;99.90
1277;DHT22;631;51.024;13.826;2023-08-24T07:46:44;21.30;99.90
1277;DHT22;631;51.024;13.826;2023-08-24T07:49:10;21.50;99.90
1277;DHT22;631;51.024;13.826;2023-08-24T07:51:36;21.60;99.90
1277;DHT22;631;51.024;13.826;2023-08-24T07:54:02;21.70;99.90
1277;DHT22;631;51.024;13.826;2023-08-24T07:56:30;21.80;99.90
1277;DHT22;631;51.024;13.826;2023-08-24T07:58:55;22.00;99.90
1277;DHT22;631;51.024;13.826;2023-08-24T08:01:21;22.20;99.90
1277;DHT22;631;51.024;13.826;2023-08-24T08:03:47;22.40;99.90
1277;DHT22;631;51.024;13.826;2023-08-24T08:06:12;22.60;99.90
1277;DHT22;631;51.024;13.826;2023-08-24T08:08:39;22.70;99.90
1277;DHT22;631;51.024;13.826;2023-08-24T08:11:04;22.90;99.50
1277;DHT22;631;51.024;13.826;2023-08-24T08:13:30;23.10;99.50
1277;DHT22;631;51.024;13.826;2023-08-24T08:16:06;23.30;98.40
1277;DHT22;631;51.024;13.826;2023-08-24T08:18:33;23.50;98.80
1277;DHT22;631;51.024;13.826;2023-08-24T08:20:59;23.70;98.40
1277;DHT22;631;51.024;13.826;2023-08-24T08:23:25;23.80;97.90
1277;DHT22;631;51.024;13.826;2023-08-24T08:25:51;24.00;97.50
1277;DHT22;631;51.024;13.826;2023-08-24T08:28:17;24.10;97.70
1277;DHT22;631;51.024;13.826;2023-08-24T08:30:48;24.20;97.50
1277;DHT22;631;51.024;13.826;2023-08-24T08:33:14;24.50;96.60
1277;DHT22;631;51.024;13.826;2023-08-24T08:35:41;24.70;94.70
1277;DHT22;631;51.024;13.826;2023-08-24T08:38:07;25.00;94.50
1277;DHT22;631;51.024;13.826;2023-08-24T08:40:36;25.30;92.70
1277;DHT22;631;51.024;13.826;2023-08-24T08:43:03;25.60;91.50
1277;DHT22;631;51.024;13.826;2023-08-24T08:45:29;25.80;91.60
1277;DHT22;631;51.024;13.826;2023-08-24T08:47:59;26.10;89.90
1277;DHT22;631;51.024;13.826;2023-08-24T08:50:25;26.60;84.70
1277;DHT22;631;51.024;13.826;2023-08-24T08:52:51;27.00;82.20
1277;DHT22;631;51.024;13.826;2023-08-24T08:55:18;27.40;75.30
1277;DHT22;631;51.024;13.826;2023-08-24T08:57:48;27.80;69.00
1277;DHT22;631;51.024;13.826;2023-08-24T09:00:15;28.10;64.20
1277;DHT22;631;51.024;13.826;2023-08-24T09:02:43;28.50;63.30
1277;DHT22;631;51.024;13.826;2023-08-24T09:05:11;29.00;55.60
1277;DHT22;631;51.024;13.826;2023-08-24T09:07:39;29.80;52.70
1277;DHT22;631;51.024;13.826;2023-08-24T09:10:06;30.50;50.80
1277;DHT22;631;51.024;13.826;2023-08-24T09:12:33;31.00;48.80
1277;DHT22;631;51.024;13.826;2023-08-24T09:14:59;31.70;44.00
1277;DHT22;631;51.024;13.826;2023-08-24T09:17:24;31.90;43.40
1277;DHT22;631;51.024;13.826;2023-08-24T09:19:51;32.40;43.20
1277;DHT22;631;51.024;13.826;2023-08-24T09:22:19;33.00;39.50
1277;DHT22;631;51.024;13.826;2023-08-24T09:24:48;33.30;37.70
1277;DHT22;631;51.024;13.826;2023-08-24T09:27:17;33.90;34.70
1277;DHT22;631;51.024;13.826;2023-08-24T09:29:46;34.30;32.60
1277;DHT22;631;51.024;13.826;2023-08-24T09:32:12;34.80;31.60
1277;DHT22;631;51.024;13.826;2023-08-24T09:34:38;35.10;29.30
1277;DHT22;631;51.024;13.826;2023-08-24T09:37:05;35.60;28.50
1277;DHT22;631;51.024;13.826;2023-08-24T09:39:37;36.10;26.20
1277;DHT22;631;51.024;13.826;2023-08-24T09:42:03;36.40;26.30
1277;DHT22;631;51.024;13.826;2023-08-24T09:44:28;36.80;25.30
1277;DHT22;631;51.024;13.826;2023-08-24T09:46:54;36.90;24.50
1277;DHT22;631;51.024;13.826;2023-08-24T09:49:20;37.10;24.50
1277;DHT22;631;51.024;13.826;2023-08-24T09:51:47;37.50;23.20
1277;DHT22;631;51.024;13.826;2023-08-24T09:54:15;37.90;22.50
1277;DHT22;631;51.024;13.826;2023-08-24T09:56:42;38.00;22.50
1277;DHT22;631;51.024;13.826;2023-08-24T09:59:16;38.50;20.60
1277;DHT22;631;51.024;13.826;2023-08-24T10:01:48;38.60;20.00
1277;DHT22;631;51.024;13.826;2023-08-24T10:04:24;38.80;19.20
1277;DHT22;631;51.024;13.826;2023-08-24T10:07:08;39.00;18.90
1277;DHT22;631;51.024;13.826;2023-08-24T10:09:45;39.00;19.00
1277;DHT22;631;51.024;13.826;2023-08-24T10:12:13;38.30;20.10
1277;DHT22;631;51.024;13.826;2023-08-24T10:14:56;37.90;19.10
1277;DHT22;631;51.024;13.826;2023-08-24T10:17:24;37.50;18.70
1277;DHT22;631;51.024;13.826;2023-08-24T10:19:52;37.10;19.50
1277;DHT22;631;51.024;13.826;2023-08-24T10:22:19;36.90;19.90
1277;DHT22;631;51.024;13.826;2023-08-24T10:24:47;36.80;20.40
1277;DHT22;631;51.024;13.826;2023-08-24T10:27:14;36.40;22.30
1277;DHT22;631;51.024;13.826;2023-08-24T10:29:40;36.30;22.20
1277;DHT22;631;51.024;13.826;2023-08-24T10:32:07;36.40;22.60
1277;DHT22;631;51.024;13.826;2023-08-24T10:34:33;36.40;21.90
1277;DHT22;631;51.024;13.826;2023-08-24T10:37:09;36.20;22.40
1277;DHT22;631;51.024;13.826;2023-08-24T10:39:36;36.20;21.30
1277;DHT22;631;51.024;13.826;2023-08-24T10:42:04;35.90;21.60
1277;DHT22;631;51.024;13.826;2023-08-24T10:44:36;35.50;22.60
1277;DHT22;631;51.024;13.826;2023-08-24T10:47:14;35.40;24.60
1277;DHT22;631;51.024;13.826;2023-08-24T10:49:45;35.20;25.10
1277;DHT22;631;51.024;13.826;2023-08-24T10:52:24;35.10;24.50
1277;DHT22;631;51.024;13.826;2023-08-24T10:54:51;35.10;23.10
1277;DHT22;631;51.024;13.826;2023-08-24T11:00:03;35.40;22.70
1277;DHT22;631;51.024;13.826;2023-08-24T11:02:52;35.40;22.20
1277;DHT22;631;51.024;13.826;2023-08-24T11:05:24;35.80;22.30
1277;DHT22;631;51.024;13.826;2023-08-24T11:08:00;35.70;21.70
1277;DHT22;631;51.024;13.826;2023-08-24T11:10:46;35.80;22.40
1277;DHT22;631;51.024;13.826;2023-08-24T11:13:18;35.40;23.00
1277;DHT22;631;51.024;13.826;2023-08-24T11:15:48;34.90;23.10
1277;DHT22;631;51.024;13.826;2023-08-24T11:18:28;34.60;24.60
1277;DHT22;631;51.024;13.826;2023-08-24T11:20:56;34.30;24.50
1277;DHT22;631;51.024;13.826;2023-08-24T11:23:23;33.80;25.10
1277;DHT22;631;51.024;13.826;2023-08-24T11:25:51;33.70;26.30
1277;DHT22;631;51.024;13.826;2023-08-24T11:28:22;33.60;27.00
1277;DHT22;631;51.024;13.826;2023-08-24T11:30:48;33.60;26.70
1277;DHT22;631;51.024;13.826;2023-08-24T11:33:14;33.70;26.30
1277;DHT22;631;51.024;13.826;2023-08-24T11:35:44;33.80;25.80
1277;DHT22;631;51.024;13.826;2023-08-24T11:38:10;33.80;24.50
1277;DHT22;631;51.024;13.826;2023-08-24T11:40:36;33.60;24.40
1277;DHT22;631;51.024;13.826;2023-08-24T11:43:03;34.00;24.50
1277;DHT22;631;51.024;13.826;2023-08-24T11:45:33;34.40;24.30
1277;DHT22;631;51.024;13.826;2023-08-24T11:47:59;35.00;25.20
1277;DHT22;631;51.024;13.826;2023-08-24T11:50:28;35.60;25.40
1277;DHT22;631;51.024;13.826;2023-08-24T11:52:54;36.00;23.30
1277;DHT22;631;51.024;13.826;2023-08-24T11:55:24;36.30;22.60
1277;DHT22;631;51.024;13.826;2023-08-24T11:57:50;36.50;23.30
1277;DHT22;631;51.024;13.826;2023-08-24T12:00:18;36.70;22.50
1277;DHT22;631;51.024;13.826;2023-08-24T12:02:45;36.70;21.70
1277;DHT22;631;51.024;13.826;2023-08-24T12:05:22;36.40;22.50
1277;DHT22;631;51.024;13.826;2023-08-24T12:07:47;36.00;23.00
1277;DHT22;631;51.024;13.826;2023-08-24T12:10:13;35.70;23.90
1277;DHT22;631;51.024;13.826;2023-08-24T12:12:39;35.50;24.60
1277;DHT22;631;51.024;13.826;2023-08-24T12:15:05;35.30;25.10
1277;DHT22;631;51.024;13.826;2023-08-24T12:17:42;35.10;24.80
1277;DHT22;631;51.024;13.826;2023-08-24T12:20:15;34.90;24.70
1277;DHT22;631;51.024;13.826;2023-08-24T12:22:41;34.70;26.00
1277;DHT22;631;51.024;13.826;2023-08-24T12:25:07;34.40;26.30
1277;DHT22;631;51.024;13.826;2023-08-24T12:27:33;34.20;26.40
1277;DHT22;631;51.024;13.826;2023-08-24T12:30:02;33.90;25.90
1277;DHT22;631;51.024;13.826;2023-08-24T12:32:45;33.70;26.40
1277;DHT22;631;51.024;13.826;2023-08-24T12:35:11;33.70;26.80
1277;DHT22;631;51.024;13.826;2023-08-24T12:37:37;33.60;26.40
1277;DHT22;631;51.024;13.826;2023-08-24T12:40:03;33.60;26.20
1277;DHT22;631;51.024;13.826;2023-08-24T12:42:32;33.50;26.10
1277;DHT22;631;51.024;13.826;2023-08-24T12:44:58;33.40;26.30
1277;DHT22;631;51.024;13.826;2023-08-24T12:47:24;33.30;27.70
1277;DHT22;631;51.024;13.826;2023-08-24T12:49:49;33.20;28.80
1277;DHT22;631;51.024;13.826;2023-08-24T12:52:16;33.10;28.30
1277;DHT22;631;51.024;13.826;2023-08-24T12:54:42;33.00;29.60
1277;DHT22;631;51.024;13.826;2023-08-24T12:57:08;32.90;29.50
1277;DHT22;631;51.024;13.826;2023-08-24T12:59:34;33.00;29.10
1277;DHT22;631;51.024;13.826;2023-08-24T13:01:59;32.90;29.70
1277;DHT22;631;51.024;13.826;2023-08-24T13:04:25;33.20;29.60
1277;DHT22;631;51.024;13.826;2023-08-24T13:06:52;33.90;29.20
1277;DHT22;631;51.024;13.826;2023-08-24T13:09:17;34.90;27.60
1277;DHT22;631;51.024;13.826;2023-08-24T13:11:43;35.90;26.20
1277;DHT22;631;51.024;13.826;2023-08-24T13:14:09;37.00;24.60
1277;DHT22;631;51.024;13.826;2023-08-24T13:16:35;37.60;23.50
1277;DHT22;631;51.024;13.826;2023-08-24T13:19:00;37.60;23.40
1277;DHT22;631;51.024;13.826;2023-08-24T13:21:26;37.40;24.00
1277;DHT22;631;51.024;13.826;2023-08-24T13:23:52;37.40;24.10
1277;DHT22;631;51.024;13.826;2023-08-24T13:26:21;37.30;24.30
1277;DHT22;631;51.024;13.826;2023-08-24T13:28:49;37.20;23.90
1277;DHT22;631;51.024;13.826;2023-08-24T13:31:15;37.00;23.60
1277;DHT22;631;51.024;13.826;2023-08-24T13:33:40;36.90;24.80
1277;DHT22;631;51.024;13.826;2023-08-24T13:36:06;37.00;24.90
1277;DHT22;631;51.024;13.826;2023-08-24T13:38:31;37.20;24.30
1277;DHT22;631;51.024;13.826;2023-08-24T13:40:57;37.40;24.40
1277;DHT22;631;51.024;13.826;2023-08-24T13:43:23;37.80;24.10
1277;DHT22;631;51.024;13.826;2023-08-24T13:45:48;38.20;22.70
1277;DHT22;631;51.024;13.826;2023-08-24T13:48:14;38.60;23.30
1277;DHT22;631;51.024;13.826;2023-08-24T13:50:41;38.40;21.90
1277;DHT22;631;51.024;13.826;2023-08-24T13:53:07;38.70;21.70
1277;DHT22;631;51.024;13.826;2023-08-24T13:55:33;39.00;21.50
1277;DHT22;631;51.024;13.826;2023-08-24T13:57:58;39.30;21.40
1277;DHT22;631;51.024;13.826;2023-08-24T14:00:25;39.50;22.10
1277;DHT22;631;51.024;13.826;2023-08-24T14:02:50;39.90;21.00
1277;DHT22;631;51.024;13.826;2023-08-24T14:05:16;40.10;20.70
1277;DHT22;631;51.024;13.826;2023-08-24T14:07:42;40.10;20.30
1277;DHT22;631;51.024;13.826;2023-08-24T14:10:08;39.90;20.10
1277;DHT22;631;51.024;13.826;2023-08-24T14:12:33;39.90;20.00
1277;DHT22;631;51.024;13.826;2023-08-24T14:15:00;39.10;20.30
1277;DHT22;631;51.024;13.826;2023-08-24T14:17:25;38.80;20.90
1277;DHT22;631;51.024;13.826;2023-08-24T14:19:51;38.80;21.10
1277;DHT22;631;51.024;13.826;2023-08-24T14:22:17;39.30;21.80
1277;DHT22;631;51.024;13.826;2023-08-24T14:24:42;39.40;21.00
1277;DHT22;631;51.024;13.826;2023-08-24T14:27:08;39.40;20.30
1277;DHT22;631;51.024;13.826;2023-08-24T14:29:33;39.50;20.50
1277;DHT22;631;51.024;13.826;2023-08-24T14:31:59;39.60;20.60
1277;DHT22;631;51.024;13.826;2023-08-24T14:34:25;39.60;21.00
1277;DHT22;631;51.024;13.826;2023-08-24T14:36:50;39.60;21.00
1277;DHT22;631;51.024;13.826;2023-08-24T14:39:16;39.40;20.80
1277;DHT22;631;51.024;13.826;2023-08-24T14:41:41;39.60;20.80
1277;DHT22;631;51.024;13.826;2023-08-24T14:44:07;39.40;21.00
1277;DHT22;631;51.024;13.826;2023-08-24T14:46:33;39.40;21.50
1277;DHT22;631;51.024;13.826;2023-08-24T14:48:59;39.40;21.30
1277;DHT22;631;51.024;13.826;2023-08-24T14:51:25;39.50;21.60
1277;DHT22;631;51.024;13.826;2023-08-24T14:53:50;39.50;20.70
1277;DHT22;631;51.024;13.826;2023-08-24T14:56:16;39.40;20.30
1277;DHT22;631;51.024;13.826;2023-08-24T14:58:42;39.10;20.70
1277;DHT22;631;51.024;13.826;2023-08-24T15:01:07;39.00;21.00
1277;DHT22;631;51.024;13.826;2023-08-24T15:03:33;38.90;21.60
1277;DHT22;631;51.024;13.826;2023-08-24T15:08:26;38.80;21.60
1277;DHT22;631;51.024;13.826;2023-08-24T15:10:54;38.50;21.80
1277;DHT22;631;51.024;13.826;2023-08-24T15:13:20;38.20;22.50
1277;DHT22;631;51.024;13.826;2023-08-24T15:15:46;38.00;22.80
1277;DHT22;631;51.024;13.826;2023-08-24T15:18:12;37.90;22.20
1277;DHT22;631;51.024;13.826;2023-08-24T15:20:37;37.70;23.00
1277;DHT22;631;51.024;13.826;2023-08-24T15:23:03;37.60;22.80
1277;DHT22;631;51.024;13.826;2023-08-24T15:25:29;37.50;23.20
1277;DHT22;631;51.024;13.826;2023-08-24T15:27:54;37.50;23.50
1277;DHT22;631;51.024;13.826;2023-08-24T15:30:20;37.70;23.10
1277;DHT22;631;51.024;13.826;2023-08-24T15:32:46;37.60;23.00
1277;DHT22;631;51.024;13.826;2023-08-24T15:35:11;37.80;23.10
1277;DHT22;631;51.024;13.826;2023-08-24T15:37:37;37.80;23.10
1277;DHT22;631;51.024;13.826;2023-08-24T15:40:05;37.60;22.50
1277;DHT22;631;51.024;13.826;2023-08-24T15:42:31;37.50;22.50
1277;DHT22;631;51.024;13.826;2023-08-24T15:44:57;37.60;22.60
1277;DHT22;631;51.024;13.826;2023-08-24T15:47:22;37.50;22.80
1277;DHT22;631;51.024;13.826;2023-08-24T15:49:48;37.50;23.00
1277;DHT22;631;51.024;13.826;2023-08-24T15:52:13;37.30;22.90
1277;DHT22;631;51.024;13.826;2023-08-24T15:54:39;37.40;23.40
1277;DHT22;631;51.024;13.826;2023-08-24T15:57:05;37.40;22.90
1277;DHT22;631;51.024;13.826;2023-08-24T15:59:30;37.10;23.60
1277;DHT22;631;51.024;13.826;2023-08-24T16:01:56;36.80;23.80
1277;DHT22;631;51.024;13.826;2023-08-24T16:04:22;36.40;23.80
1277;DHT22;631;51.024;13.826;2023-08-24T16:06:47;36.00;24.90
1277;DHT22;631;51.024;13.826;2023-08-24T16:09:13;35.70;25.20
1277;DHT22;631;51.024;13.826;2023-08-24T16:11:38;35.30;25.50
1277;DHT22;631;51.024;13.826;2023-08-24T16:14:04;35.20;26.00